createdAt,value
2023-04-19T00:14:01.727Z,49.73
2023-04-19T00:16:29.176Z,46.50
2023-04-19T00:18:56.639Z,44.70
2023-04-19T00:21:24.151Z,51.25
2023-04-19T00:23:52.275Z,44.75
2023-04-19T00:26:20.033Z,45.47
2023-04-19T00:28:47.357Z,43.08
2023-04-19T00:31:14.770Z,55.83
2023-04-19T00:33:42.172Z,51.05
2023-04-19T00:36:10.928Z,46.95
2023-04-19T00:38:38.411Z,46.70
2023-04-19T00:41:05.938Z,47.55
2023-04-19T00:43:33.554Z,47.20
2023-04-19T00:46:01.195Z,38.22
2023-04-19T00:48:29.507Z,38.75
2023-04-19T00:50:57.186Z,38.42
2023-04-19T00:53:24.609Z,42.05
2023-04-19T00:55:52.531Z,52.53
2023-04-19T00:58:20.038Z,44.17
2023-04-19T01:00:47.561Z,45.45
2023-04-19T01:03:14.980Z,44.25
2023-04-19T01:05:45.020Z,51.08
2023-04-19T01:08:12.565Z,55.10
2023-04-19T01:10:39.879Z,46.63
2023-04-19T01:13:07.330Z,47.70
2023-04-19T01:15:34.711Z,49.80
2023-04-19T01:18:02.768Z,46.35
2023-04-19T01:20:30.279Z,71.32
2023-04-19T01:22:57.656Z,53.08
2023-04-19T01:25:25.157Z,45.08
2023-04-19T01:27:52.486Z,56.20
2023-04-19T01:30:19.845Z,50.80
2023-04-19T01:32:47.497Z,47.38
2023-04-19T01:35:15.003Z,58.05
2023-04-19T01:37:42.469Z,47.08
2023-04-19T01:40:10.469Z,53.67
2023-04-19T01:42:37.753Z,54.15
2023-04-19T01:45:05.928Z,46.55
2023-04-19T01:47:33.267Z,62.78
2023-04-19T01:50:00.804Z,46.58
2023-04-19T01:52:28.333Z,53.92
2023-04-19T01:54:55.669Z,47.00
2023-04-19T01:57:23.103Z,54.03
2023-04-19T01:59:50.694Z,57.60
2023-04-19T02:02:18.038Z,51.40
2023-04-19T02:04:45.486Z,46.38
2023-04-19T02:07:12.794Z,53.88
2023-04-19T02:09:40.348Z,45.47
2023-04-19T02:12:07.908Z,51.58
2023-04-19T02:14:36.202Z,54.38
2023-04-19T02:17:03.646Z,54.50
2023-04-19T02:19:30.933Z,45.55
2023-04-19T02:21:58.491Z,42.35
2023-04-19T02:24:26.043Z,46.15
2023-04-19T02:26:53.538Z,57.33
2023-04-19T02:29:21.134Z,44.70
2023-04-19T02:31:48.627Z,47.85
2023-04-19T02:34:16.366Z,50.88
2023-04-19T02:36:44.174Z,53.70
2023-04-19T02:39:12.341Z,54.88
2023-04-19T02:41:39.635Z,52.75
2023-04-19T02:44:07.060Z,56.03
2023-04-19T02:46:34.613Z,53.63
2023-04-19T02:49:02.243Z,51.13
2023-04-19T02:51:29.632Z,54.70
2023-04-19T02:53:56.982Z,54.15
2023-04-19T02:56:24.369Z,59.78
2023-04-19T02:58:54.640Z,57.05
2023-04-19T03:01:21.957Z,53.03
2023-04-19T03:03:49.526Z,55.17
2023-04-19T03:06:17.556Z,52.28
2023-04-19T03:08:45.344Z,61.13
2023-04-19T03:11:15.039Z,61.15
2023-04-19T03:13:42.442Z,57.03
2023-04-19T03:16:10.102Z,61.28
2023-04-19T03:18:37.654Z,52.40
2023-04-19T03:21:05.645Z,49.20
2023-04-19T03:23:33.142Z,60.22
2023-04-19T03:26:00.506Z,48.42
2023-04-19T03:28:27.999Z,65.78
2023-04-19T03:30:55.425Z,58.13
2023-04-19T03:33:22.882Z,65.13
2023-04-19T03:35:50.367Z,62.70
2023-04-19T03:38:17.774Z,60.15
2023-04-19T03:40:45.102Z,60.08
2023-04-19T03:43:12.423Z,53.20
2023-04-19T03:45:39.737Z,55.97
2023-04-19T03:48:07.324Z,54.80
2023-04-19T03:50:34.646Z,55.10
2023-04-19T03:53:05.432Z,58.75
2023-04-19T03:55:32.737Z,51.67
2023-04-19T03:58:00.251Z,51.72
2023-04-19T04:00:28.092Z,59.50
2023-04-19T04:02:55.602Z,64.50
2023-04-19T04:05:23.347Z,66.28
2023-04-19T04:07:51.022Z,59.75
2023-04-19T04:10:18.557Z,56.35
2023-04-19T04:12:46.110Z,64.25
2023-04-19T04:15:13.381Z,56.78
2023-04-19T04:17:40.722Z,51.60
2023-04-19T04:20:09.297Z,58.38
2023-04-19T04:22:43.071Z,56.15
2023-04-19T04:25:10.814Z,51.33
2023-04-19T04:27:38.438Z,47.75
2023-04-19T04:30:06.796Z,67.00
2023-04-19T04:32:36.960Z,65.60
2023-04-19T04:35:05.646Z,54.83
2023-04-19T04:37:36.226Z,56.65
2023-04-19T04:40:08.330Z,53.45
2023-04-19T04:42:35.819Z,55.95
2023-04-19T04:45:03.475Z,51.13
2023-04-19T04:47:34.954Z,62.05
2023-04-19T04:50:03.413Z,53.83
2023-04-19T04:52:31.144Z,50.83
2023-04-19T04:54:58.464Z,56.03
2023-04-19T04:57:25.919Z,52.88
2023-04-19T04:59:53.508Z,51.63
2023-04-19T05:02:21.059Z,58.33
2023-04-19T05:04:48.527Z,53.28
2023-04-19T05:07:16.056Z,60.55
2023-04-19T05:09:43.424Z,61.65
2023-04-19T05:12:10.835Z,51.13
2023-04-19T05:14:38.386Z,59.13
2023-04-19T05:17:07.105Z,50.90
2023-04-19T05:19:34.780Z,58.78
2023-04-19T05:22:02.141Z,61.08
2023-04-19T05:24:29.639Z,53.60
2023-04-19T05:26:56.912Z,53.80
2023-04-19T05:29:24.413Z,53.17
2023-04-19T05:31:52.507Z,51.58
2023-04-19T05:34:22.070Z,57.67
2023-04-19T05:36:49.860Z,49.67
2023-04-19T05:39:17.381Z,49.58
2023-04-19T05:41:45.191Z,56.28
2023-04-19T05:44:12.788Z,52.47
2023-04-19T05:46:40.305Z,54.95
2023-04-19T05:49:07.864Z,58.28
2023-04-19T05:51:35.376Z,44.72
2023-04-19T05:54:03.282Z,53.28
2023-04-19T05:56:30.695Z,50.20
2023-04-19T05:58:58.392Z,49.15
2023-04-19T06:01:25.798Z,52.67
2023-04-19T06:03:53.758Z,44.15
2023-04-19T06:06:23.466Z,53.45
2023-04-19T06:08:53.396Z,45.03
2023-04-19T06:11:31.442Z,47.42
2023-04-19T06:14:02.584Z,53.15
2023-04-19T06:16:30.170Z,51.65
2023-04-19T06:18:57.657Z,48.53
2023-04-19T06:21:25.355Z,59.17
2023-04-19T06:23:52.929Z,54.42
2023-04-19T06:26:20.691Z,54.60
2023-04-19T06:28:47.968Z,52.53
2023-04-19T06:31:15.573Z,58.53
2023-04-19T06:33:42.968Z,58.05
2023-04-19T06:36:11.051Z,55.17
2023-04-19T06:38:41.832Z,61.92
2023-04-19T06:41:10.446Z,51.05
2023-04-19T06:43:37.851Z,53.53
2023-04-19T06:46:05.880Z,53.30
2023-04-19T06:48:34.213Z,60.60
2023-04-19T06:51:02.043Z,58.65
2023-04-19T06:53:29.367Z,62.63
2023-04-19T06:56:01.995Z,47.78
2023-04-19T06:58:29.710Z,59.40
2023-04-19T07:00:57.170Z,62.60
2023-04-19T07:03:24.661Z,53.25
2023-04-19T07:05:56.568Z,53.33
2023-04-19T07:08:27.831Z,54.55
2023-04-19T07:10:59.802Z,63.95
2023-04-19T07:13:27.198Z,54.78
2023-04-19T07:15:54.589Z,61.47
2023-04-19T07:18:22.035Z,49.55
2023-04-19T07:20:49.877Z,49.83
2023-04-19T07:23:17.572Z,53.47
2023-04-19T07:25:45.124Z,55.85
2023-04-19T07:28:12.525Z,49.17
2023-04-19T07:30:39.998Z,43.80
2023-04-19T07:33:08.941Z,51.17
2023-04-19T07:35:39.332Z,51.63
2023-04-19T07:38:06.886Z,52.67
2023-04-19T07:40:34.256Z,72.95
2023-04-19T07:43:01.832Z,56.05
2023-04-19T07:45:31.370Z,52.20
2023-04-19T07:47:58.919Z,46.42
2023-04-19T07:50:27.225Z,50.75
2023-04-19T07:52:54.547Z,49.88
2023-04-19T07:55:22.060Z,47.13
2023-04-19T07:57:50.244Z,53.58
2023-04-19T08:00:18.973Z,63.42
2023-04-19T08:02:47.156Z,49.40
2023-04-19T08:05:19.338Z,50.45
2023-04-19T08:07:46.888Z,55.72
2023-04-19T08:10:14.803Z,55.30
2023-04-19T08:12:53.557Z,51.03
2023-04-19T08:16:13.468Z,43.17
2023-04-19T08:18:16.933Z,58.28
2023-04-19T08:20:47.040Z,58.03
2023-04-19T08:23:22.937Z,45.10
2023-04-19T08:25:51.861Z,50.58
2023-04-19T08:28:19.432Z,49.10
2023-04-19T08:30:47.019Z,48.03
2023-04-19T08:33:14.706Z,52.63
2023-04-19T08:35:42.431Z,50.00
2023-04-19T08:38:10.076Z,46.28
2023-04-19T08:40:45.635Z,49.42
2023-04-19T08:43:13.226Z,53.73
2023-04-19T08:45:41.189Z,50.92
2023-04-19T08:48:12.074Z,49.75
2023-04-19T08:50:55.812Z,47.97
2023-04-19T08:53:35.935Z,39.42
2023-04-19T08:58:46.690Z,36.47
2023-04-19T09:04:03.342Z,42.78
2023-04-19T09:06:40.162Z,43.88
2023-04-19T09:09:33.191Z,36.88
2023-04-19T09:12:15.732Z,36.75
2023-04-19T09:14:59.824Z,41.33
2023-04-19T09:17:28.570Z,37.58
2023-04-19T09:19:56.143Z,40.28
2023-04-19T09:22:23.902Z,37.63
2023-04-19T09:27:31.655Z,39.65
2023-04-19T09:30:01.478Z,34.85
2023-04-19T09:32:44.486Z,40.90
2023-04-19T09:35:12.409Z,38.15
2023-04-19T09:38:01.847Z,41.65
2023-04-19T09:40:29.056Z,41.00
2023-04-19T09:45:31.390Z,36.90
2023-04-19T09:48:07.973Z,39.50
2023-04-19T09:50:46.642Z,44.80
2023-04-19T09:53:24.416Z,31.75
2023-04-19T09:56:01.490Z,40.05
2023-04-19T10:01:13.367Z,36.65
2023-04-19T10:03:45.512Z,33.80
2023-04-19T10:08:56.837Z,33.47
2023-04-19T10:11:27.730Z,38.80
2023-04-19T10:14:00.479Z,31.85
2023-04-19T10:16:28.211Z,34.05
2023-04-19T10:18:56.162Z,32.60
2023-04-19T10:21:24.440Z,36.00
2023-04-19T10:23:52.189Z,33.92
2023-04-19T10:26:19.519Z,38.22
2023-04-19T10:28:48.285Z,34.63
2023-04-19T10:31:16.147Z,32.58
2023-04-19T10:33:43.785Z,30.08
2023-04-19T10:36:14.563Z,41.70
2023-04-19T10:38:51.579Z,32.42
2023-04-19T10:41:19.648Z,37.50
2023-04-19T10:43:56.162Z,33.15
2023-04-19T10:46:25.665Z,30.98
2023-04-19T10:49:00.639Z,33.85
2023-04-19T10:51:44.359Z,38.20
2023-04-19T10:54:36.012Z,31.42
2023-04-19T10:57:06.105Z,33.42
2023-04-19T10:59:37.321Z,38.33
2023-04-19T11:02:23.139Z,34.85
2023-04-19T11:04:50.674Z,36.20
2023-04-19T11:07:18.672Z,31.65
2023-04-19T11:09:47.574Z,29.63
2023-04-19T11:12:16.521Z,31.35
2023-04-19T11:14:49.072Z,27.27
2023-04-19T11:17:25.932Z,29.17
2023-04-19T11:20:06.667Z,34.72
2023-04-19T11:22:42.474Z,29.95
2023-04-19T11:25:19.414Z,37.22
2023-04-19T11:27:48.065Z,26.67
2023-04-19T11:30:22.497Z,29.10
2023-04-19T11:32:53.590Z,31.25
2023-04-19T11:35:25.784Z,27.52
2023-04-19T11:37:54.503Z,31.27
2023-04-19T11:40:23.905Z,26.60
2023-04-19T11:42:56.303Z,30.17
2023-04-19T11:45:39.173Z,28.85
2023-04-19T11:48:15.138Z,30.20
2023-04-19T11:50:44.247Z,29.95
2023-04-19T11:53:21.708Z,33.75
2023-04-19T11:55:55.016Z,28.35
2023-04-19T11:58:33.832Z,28.92
2023-04-19T12:01:07.572Z,26.70
2023-04-19T12:03:45.791Z,29.83
2023-04-19T12:06:17.853Z,23.38
2023-04-19T12:08:51.475Z,26.05
2023-04-19T12:11:24.657Z,27.80
2023-04-19T12:14:15.321Z,22.55
2023-04-19T12:16:45.287Z,22.73
2023-04-19T12:19:14.516Z,31.83
2023-04-19T12:21:42.070Z,23.02
2023-04-19T12:24:09.717Z,16.67
2023-04-19T12:26:37.706Z,23.88
2023-04-19T12:29:06.171Z,16.88
2023-04-19T12:31:33.901Z,18.88
2023-04-19T12:34:01.511Z,20.73
2023-04-19T12:36:30.398Z,18.42
2023-04-19T12:38:57.748Z,21.77
2023-04-19T12:41:24.990Z,26.70
2023-04-19T12:43:52.291Z,27.52
2023-04-19T12:46:19.664Z,22.52
2023-04-19T12:48:46.956Z,20.90
2023-04-19T12:51:14.410Z,25.25
2023-04-19T12:53:49.523Z,21.13
2023-04-19T12:56:17.928Z,22.85
2023-04-19T12:58:45.321Z,23.23
2023-04-19T13:01:12.899Z,20.48
2023-04-19T13:03:40.457Z,12.73
2023-04-19T13:06:08.234Z,18.80
2023-04-19T13:08:44.884Z,18.05
2023-04-19T13:11:15.831Z,22.70
2023-04-19T13:13:43.241Z,15.75
2023-04-19T13:16:11.161Z,14.35
2023-04-19T13:18:40.315Z,16.83
2023-04-19T13:21:08.622Z,23.35
2023-04-19T13:23:36.537Z,25.45
2023-04-19T13:26:04.034Z,33.38
2023-04-19T13:28:31.582Z,21.75
2023-04-19T13:30:59.966Z,33.08
2023-04-19T13:33:27.297Z,22.80
2023-04-19T13:35:54.606Z,21.23
2023-04-19T13:38:22.756Z,23.30
2023-04-19T13:40:50.256Z,26.17
2023-04-19T13:43:17.582Z,31.25
2023-04-19T13:45:45.010Z,25.52
2023-04-19T13:48:12.529Z,28.15
2023-04-19T13:50:39.940Z,26.52
2023-04-19T13:53:07.598Z,29.73
2023-04-19T13:55:35.318Z,29.65
2023-04-19T13:58:02.655Z,25.60
2023-04-19T14:00:30.496Z,21.05
2023-04-19T14:02:58.163Z,34.00
2023-04-19T14:05:27.018Z,25.48
2023-04-19T14:07:54.576Z,23.92
2023-04-19T14:10:22.085Z,36.67
2023-04-19T14:12:51.052Z,33.15
2023-04-19T14:15:19.875Z,25.98
2023-04-19T14:17:47.451Z,27.52
2023-04-19T14:20:15.296Z,24.33
2023-04-19T14:22:43.290Z,21.58
2023-04-19T14:25:12.674Z,20.60
2023-04-19T14:27:40.075Z,17.02
2023-04-19T14:30:08.277Z,22.17
2023-04-19T14:32:36.601Z,34.63
2023-04-19T14:35:04.169Z,36.60
2023-04-19T14:37:31.748Z,21.38
2023-04-19T14:39:59.100Z,23.60
2023-04-19T14:42:26.397Z,21.95
2023-04-19T14:44:53.883Z,18.08
2023-04-19T14:47:21.893Z,34.60
2023-04-19T14:49:49.595Z,29.48
2023-04-19T14:52:17.284Z,27.98
2023-04-19T14:54:44.812Z,20.45
2023-04-19T14:57:13.771Z,31.55
2023-04-19T14:59:41.525Z,24.05
2023-04-19T15:02:10.751Z,18.45
2023-04-19T15:04:41.093Z,22.52
2023-04-19T15:07:09.071Z,37.40
2023-04-19T15:09:36.437Z,25.48
2023-04-19T15:12:03.945Z,19.27
2023-04-19T15:14:31.278Z,21.27
2023-04-19T15:16:58.677Z,20.02
2023-04-19T15:19:26.179Z,14.90
2023-04-19T15:21:53.505Z,29.50
2023-04-19T15:24:20.878Z,15.52
2023-04-19T15:26:48.429Z,20.17
2023-04-19T15:29:16.512Z,20.50
2023-04-19T15:31:44.084Z,22.10
2023-04-19T15:34:11.768Z,22.58
2023-04-19T15:36:40.920Z,17.50
2023-04-19T15:39:08.397Z,15.27
2023-04-19T15:41:35.880Z,24.83
2023-04-19T15:44:03.297Z,26.73
2023-04-19T15:46:30.696Z,14.68
2023-04-19T15:48:58.488Z,18.08
2023-04-19T15:51:26.906Z,21.95
2023-04-19T15:53:54.183Z,16.20
2023-04-19T15:56:21.508Z,19.02
2023-04-19T15:58:48.823Z,23.52
2023-04-19T16:01:18.365Z,11.82
2023-04-19T16:03:47.132Z,20.92
2023-04-19T16:06:14.769Z,16.83
2023-04-19T16:08:43.470Z,21.25
2023-04-19T16:11:10.915Z,11.55
2023-04-19T16:13:38.285Z,15.68
2023-04-19T16:16:06.255Z,20.80
2023-04-19T16:18:33.617Z,13.55
2023-04-19T16:21:00.942Z,13.63
2023-04-19T16:23:28.458Z,12.68
2023-04-19T16:25:56.807Z,14.18
2023-04-19T16:28:24.308Z,17.25
2023-04-19T16:30:51.596Z,12.73
2023-04-19T16:33:19.117Z,7.72
2023-04-19T16:35:48.112Z,17.25
2023-04-19T16:38:16.109Z,9.88
2023-04-19T16:40:46.222Z,27.98
2023-04-19T16:43:13.646Z,15.05
2023-04-19T16:45:42.857Z,13.32
2023-04-19T16:48:10.619Z,12.52
2023-04-19T16:50:38.442Z,13.70
2023-04-19T16:53:05.961Z,16.40
2023-04-19T16:55:33.366Z,17.50
2023-04-19T16:58:00.958Z,16.10
2023-04-19T17:00:28.467Z,23.00
2023-04-19T17:02:55.929Z,19.63
2023-04-19T17:05:23.423Z,15.52
2023-04-19T17:07:52.307Z,18.05
2023-04-19T17:10:20.449Z,12.07
2023-04-19T17:12:47.836Z,18.92
2023-04-19T17:15:15.222Z,15.73
2023-04-19T17:17:42.927Z,18.35
2023-04-19T17:20:10.659Z,20.13
2023-04-19T17:22:38.014Z,21.08
2023-04-19T17:25:06.016Z,26.25
2023-04-19T17:27:34.034Z,14.38
2023-04-19T17:30:01.406Z,31.85
2023-04-19T17:32:29.012Z,20.42
2023-04-19T17:34:56.368Z,22.98
2023-04-19T17:37:23.636Z,16.60
2023-04-19T17:39:51.097Z,17.30
2023-04-19T17:42:18.469Z,18.23
2023-04-19T17:44:52.090Z,18.70
2023-04-19T17:47:20.273Z,17.50
2023-04-19T17:49:48.560Z,20.92
2023-04-19T17:52:15.902Z,14.90
2023-04-19T17:54:43.340Z,18.77
2023-04-19T17:57:10.651Z,20.30
2023-04-19T17:59:38.162Z,17.27
2023-04-19T18:02:06.627Z,14.82
2023-04-19T18:04:35.252Z,15.80
2023-04-19T18:07:02.745Z,18.17
2023-04-19T18:09:30.102Z,20.33
2023-04-19T18:11:57.860Z,14.38
2023-04-19T18:14:25.185Z,13.00
2023-04-19T18:16:52.584Z,19.70
2023-04-19T18:19:20.011Z,26.13
2023-04-19T18:21:47.330Z,18.75
2023-04-19T18:24:15.490Z,14.90
2023-04-19T18:26:43.786Z,12.00
2023-04-19T18:29:13.024Z,17.45
2023-04-19T18:31:40.452Z,17.70
2023-04-19T18:34:07.815Z,17.13
2023-04-19T18:36:35.241Z,16.08
2023-04-19T18:39:02.756Z,18.90
2023-04-19T18:41:30.163Z,17.42
2023-04-19T18:46:28.000Z,20.88
2023-04-19T18:48:55.440Z,11.35
2023-04-19T18:51:22.807Z,19.30
2023-04-19T18:53:52.036Z,21.00
2023-04-19T18:56:19.448Z,16.48
2023-04-19T18:58:47.289Z,17.65
2023-04-19T19:01:14.838Z,20.30
2023-04-19T19:06:16.218Z,18.08
2023-04-19T19:08:43.769Z,16.90
2023-04-19T19:13:41.773Z,20.08
2023-04-19T19:16:10.302Z,11.45
2023-04-19T19:18:38.015Z,10.25
2023-04-19T19:21:07.406Z,16.63
2023-04-19T19:23:38.317Z,11.65
2023-04-19T19:26:12.942Z,11.18
2023-04-19T19:28:42.098Z,17.25
2023-04-19T19:31:09.991Z,17.35
2023-04-19T19:33:40.399Z,16.55
2023-04-19T19:36:08.126Z,11.73
2023-04-19T19:38:36.587Z,21.38
2023-04-19T19:41:55.062Z,13.10
2023-04-19T19:43:55.057Z,11.43
2023-04-19T19:46:23.110Z,13.07
2023-04-19T19:49:02.688Z,18.27
2023-04-19T19:51:53.241Z,10.45
2023-04-19T19:54:18.320Z,14.70
2023-04-19T20:03:36.258Z,13.00
2023-04-19T20:14:28.066Z,14.02
2023-04-19T20:16:27.169Z,14.13
2023-04-19T20:28:02.483Z,13.23
2023-04-19T20:30:29.863Z,10.23
2023-04-19T20:32:57.609Z,18.48
2023-04-19T20:35:25.105Z,10.02
2023-04-19T20:37:52.712Z,25.77
2023-04-19T20:40:20.447Z,11.52
2023-04-19T20:42:47.798Z,11.48
2023-04-19T20:45:19.179Z,11.25
2023-04-19T20:47:47.303Z,15.95
2023-04-19T20:50:15.321Z,13.48
2023-04-19T20:56:28.511Z,21.95
2023-04-19T21:02:39.337Z,18.88
2023-04-19T21:05:45.343Z,10.85
2023-04-19T21:08:36.568Z,13.90
2023-04-19T21:11:15.675Z,11.70
2023-04-19T21:14:13.615Z,11.00
2023-04-19T21:16:41.233Z,10.15
2023-04-19T21:20:38.565Z,13.23
2023-04-19T21:23:55.583Z,9.07
2023-04-19T21:26:39.683Z,12.45
2023-04-19T21:29:41.170Z,13.32
2023-04-19T21:32:17.500Z,10.43
2023-04-19T21:39:17.826Z,11.50
2023-04-19T21:41:46.042Z,13.68
2023-04-19T21:48:00.788Z,12.63
2023-04-19T21:50:46.278Z,8.52
2023-04-19T21:53:14.025Z,8.27
2023-04-19T21:55:42.098Z,16.23
2023-04-19T21:58:09.646Z,16.08
2023-04-19T22:00:36.963Z,9.73
2023-04-19T22:03:04.779Z,11.23
2023-04-19T22:05:32.364Z,12.77
2023-04-19T22:07:59.694Z,9.10
2023-04-19T22:10:33.574Z,14.80
2023-04-19T22:13:03.575Z,15.70
2023-04-19T22:15:32.018Z,21.38
2023-04-19T22:18:03.117Z,21.15
2023-04-19T22:20:32.293Z,11.52
2023-04-19T22:22:59.878Z,12.35
2023-04-19T22:25:27.950Z,10.93
2023-04-19T22:27:55.464Z,14.93
2023-04-19T22:30:22.796Z,10.50
2023-04-19T22:32:50.222Z,9.98
2023-04-19T22:35:18.113Z,8.27
2023-04-19T22:37:45.983Z,13.68
2023-04-19T22:40:14.002Z,20.02
2023-04-19T22:42:41.608Z,13.23
2023-04-19T22:45:09.488Z,9.70
2023-04-19T22:47:37.718Z,12.20
2023-04-19T22:50:05.898Z,13.23
2023-04-19T22:52:35.008Z,9.77
2023-04-19T22:55:02.553Z,13.90
2023-04-19T22:57:30.041Z,17.58
2023-04-19T22:59:57.360Z,10.30
2023-04-19T23:02:24.675Z,12.13
2023-04-19T23:04:52.477Z,13.05
2023-04-19T23:07:21.940Z,14.73
2023-04-19T23:09:51.094Z,14.75
2023-04-19T23:12:18.381Z,9.40
2023-04-19T23:14:54.239Z,16.25
2023-04-19T23:17:21.539Z,8.52
2023-04-19T23:19:48.892Z,19.52
2023-04-19T23:22:17.898Z,10.98
2023-04-19T23:24:45.315Z,11.98
2023-04-19T23:27:12.981Z,13.27
2023-04-19T23:29:40.405Z,10.90
2023-04-19T23:32:07.670Z,21.00
2023-04-19T23:34:35.039Z,11.80
2023-04-19T23:37:02.399Z,13.00
2023-04-19T23:39:29.888Z,9.35
2023-04-19T23:41:58.077Z,15.57
2023-04-19T23:44:27.116Z,14.27
2023-04-19T23:46:54.506Z,17.42
2023-04-19T23:51:19.376Z,15.00
2023-04-19T23:56:48.400Z,14.50
2023-04-19T23:59:40.984Z,13.55
